AST,Max TemperatureF,Mean TemperatureF,Min TemperatureF,Max Dew PointF,MeanDew PointF,Min DewpointF,Max Humidity, Mean Humidity, Min Humidity, Max Sea Level PressureIn, Mean Sea Level PressureIn, Min Sea Level PressureIn, Max VisibilityMiles, Mean VisibilityMiles, Min VisibilityMiles, Max Wind SpeedMPH, Mean Wind SpeedMPH, Max Gust SpeedMPH,PrecipitationIn, CloudCover, Events, WindDirDegrees
2012-10-1,89,86,82,77,76,75,84,73,59,29.95,29.88,29.83,19,7,6,22,17,,0.00,2,,98
2012-10-2,89,86,82,77,76,73,84,73,60,29.98,29.92,29.86,6,6,6,18,14,,0.00,3,,108
2012-10-3,89,85,81,77,75,72,84,71,53,30.00,29.93,29.89,6,6,6,17,13,,0.00,3,,103
2012-10-4,90,86,82,77,76,75,84,74,60,29.95,29.87,29.80,19,8,6,16,12,,0.00,3,,91
2012-10-5,90,85,80,77,76,75,89,73,62,29.90,29.83,29.77,19,7,6,12,10,,0.00,3,,104
2012-10-6,89,84,80,83,76,73,84,75,58,29.86,29.81,29.74,6,6,6,12,11,,0.00,2,,104
2012-10-7,89,81,73,79,77,72,100,83,66,29.92,29.87,29.83,19,9,6,100,18,,0.00,3,Rain,105
2012-10-8,89,86,82,79,78,76,89,76,62,29.97,29.91,29.86,19,10,6,21,16,,0.00,3,,99
2012-10-9,89,86,82,82,77,76,84,77,63,29.98,29.92,29.86,6,6,6,18,14,,0.00,3,,102
2012-10-10,89,85,81,79,76,73,84,70,57,29.95,29.88,29.80,6,6,6,13,11,,0.00,4,,85
2012-10-11,90,85,80,77,75,72,89,70,54,29.92,29.85,29.80,6,6,6,12,10,,0.00,2,,88
2012-10-12,89,84,79,81,76,75,89,77,55,29.89,29.81,29.77,16,7,6,12,8,,0.31,3,Rain,31
2012-10-13,90,86,82,81,77,75,84,76,64,29.86,29.80,29.74,19,7,6,12,7,,0.00,2,,290
2012-10-14,89,84,80,79,77,75,89,77,60,29.90,29.81,29.74,6,6,6,13,8,,0.00,2,,230
2012-10-15,88,84,80,79,76,75,84,74,66,29.87,29.81,29.74,19,7,6,12,4,,0.00,2,,265
2012-10-16,88,84,80,79,77,75,89,76,62,29.88,29.82,29.77,19,9,6,12,9,,0.00,2,,305
2012-10-17,87,82,77,79,77,75,89,82,71,29.94,29.87,29.80,16,9,6,12,4,,0.00,3,Thunderstorm,305
2012-10-18,89,84,79,80,77,75,89,78,59,29.92,29.86,29.80,19,8,6,12,10,,0.01,3,Rain,106
2012-10-19,88,82,77,81,77,75,94,86,74,29.89,29.83,29.77,16,8,1,17,8,,0.51,5,Rain,13
2012-10-20,85,82,78,79,77,75,89,81,69,29.90,29.83,29.77,16,9,6,13,9,,0.00,4,,117
2012-10-21,86,80,73,80,77,73,100,85,77,29.87,29.80,29.74,12,7,5,16,11,,0.12,2,Rain,99
2012-10-22,85,80,75,79,77,73,100,86,74,29.83,29.76,29.71,16,8,6,22,10,,0.08,3,Rain,100
2012-10-23,87,84,81,81,78,75,89,80,70,29.83,29.75,29.68,19,9,6,22,15,,0.00,2,,109
2012-10-24,88,85,82,79,78,77,89,80,69,29.84,29.76,29.71,19,9,6,21,16,,0.00,3,,101
2012-10-25,89,86,82,83,79,78,89,80,67,29.86,29.81,29.77,19,8,6,17,14,,0.00,2,,111
2012-10-26,90,85,80,81,79,77,94,82,66,29.86,29.81,29.77,19,9,6,13,10,,0.00,1,,121
2012-10-27,93,86,80,81,79,77,94,79,57,29.86,29.81,29.74,19,8,6,10,8,,0.00,2,,132
2012-10-28,91,86,81,85,80,79,94,81,70,29.87,29.80,29.74,19,9,6,14,6,,0.00,2,,113
2012-10-29,90,86,83,81,80,79,89,82,67,29.92,29.84,29.80,12,7,6,12,11,,0.00,4,,96
2012-10-30,87,82,79,81,79,79,94,85,75,29.95,29.89,29.83,,,,12,12,,0.00,,,100
2012-10-31,86,84,82,75,75,75,79,77,70,29.95,29.89,29.83,6,6,6,12,10,,0.00,1,,83